KFFO/FFO METAR and TAF weather

Enter ICAO airport designator
Station Type Date Time Source
KFFO METAR 2018/12/13 05:56 UTC NOAA

KFFO 130556Z AUTO 00000KT 10SM CLR 00/M03 A3000 RMK AO2 SLP168 T10051027 10054 21009 52015


Station Type Date Time Source
KFFO Decoded METAR 2018/12/13 05:56 UTC NOAA

Dayton / Wright-Patterson Air Force Base, OH, United States (KFFO) 39-50N 084-03W 251M
Dec 13, 2018 - 12:56 AM EST / 2018.12.13 0556 UTC
Wind: Calm:0
Visibility: 10 mile(s):0
Sky conditions: clear
Temperature: 31.1 F (-0.5 C)
Dew Point: 27.1 F (-2.7 C)
Relative Humidity: 85%
Pressure (altimeter): 30 in. Hg (1015 hPa)
Pressure tendency: 0.04 inches (1.5 hPa) higher than three hours ago
ob: KFFO 130556Z AUTO 00000KT 10SM CLR 00/M03 A3000 RMK AO2 SLP168 T10051027 10054 21009 52015
cycle: 6

Station Type Date Time Source
KFFO TAF 2018/12/13 03:07 UTC NOAA

TAF KFFO 130300Z 1303/1409 20009KT 9999 BKN040 QNH2996INS
BECMG 1309/1310 24006KT 9999 OVC010 QNH3004INS
BECMG 1311/1312 23006KT 4800 BR OVC005 QNH3009INS
BECMG 1316/1317 16009KT 9999 NSW OVC007 QNH3015INS
BECMG 1405/1406 15006KT 9999 FEW055 QNH3018INS TX07/1319Z TN00/1311Z


Example: see airport list